This is the latest recevied weather packets stored in our database for station/object KC4KQE. If no packets are shown the sender has not sent any weather packets the latest 1 day(s).
| Time | Temp. | Humidity | Pressure | Rain* | Wind** | Luminosity | Snow |
|---|---|---|---|---|---|---|---|
| 1778101157 | 27.22° C | 20% | 1014.7 hPa | 0 mm | - | 895 W/m² | - |
| 1778099656 | 26.67° C | 21% | 1015 hPa | 0 mm | - | 926 W/m² | - |
| 1778090958 | 23.33° C | 28% | 1016.4 hPa | 0 mm | - | 888 W/m² | - |
| 1778084658 | 21.11° C | 33% | 1016.3 hPa | 0 mm | - | 671 W/m² | - |
| 1778067857 | 11.67° C | 65% | 1014.7 hPa | 0 mm | - | 0 W/m² | - |
| 1778066958 | 12.22° C | 63% | 1014.7 hPa | 0 mm | - | 0 W/m² | - |
| 1778063656 | 12.78° C | 57% | 1014.5 hPa | 0 mm | - | 0 W/m² | - |
| 1778062756 | 13.33° C | 56% | 1014.4 hPa | 0 mm | - | 0 W/m² | - |
| 1778061556 | 13.33° C | 54% | 1014.3 hPa | 0 mm | - | 0 W/m² | - |
| 1778060958 | 13.89° C | 52% | 1014.3 hPa | 0 mm | - | 0 W/m² | - |
| 1778059457 | 14.44° C | 50% | 1014.2 hPa | 0 mm | - | 0 W/m² | - |
| 1778059157 | 14.44° C | 49% | 1014.2 hPa | 0 mm | - | 0 W/m² | - |
| 1778058856 | 14.44° C | 50% | 1014.2 hPa | 0 mm | - | 0 W/m² | - |
| 1778058257 | 14.44° C | 50% | 1014.1 hPa | 0 mm | - | 0 W/m² | - |
| 1778057056 | 13.89° C | 51% | 1014.2 hPa | 0 mm | - | 0 W/m² | - |
| 1778056758 | 14.44° C | 50% | 1014.1 hPa | 0 mm | - | 0 W/m² | - |
| 1778056157 | 15° C | 47% | 1014.1 hPa | 0 mm | - | 0 W/m² | - |
| 1778055556 | 15° C | 46% | 1014.2 hPa | 0 mm | - | 0 W/m² | - |
| 1778055256 | 15° C | 45% | 1014.2 hPa | 0 mm | - | 0 W/m² | - |
| 1778054056 | 15.56° C | 43% | 1014.2 hPa | 0 mm | - | 0 W/m² | - |
| 1778052856 | 16.11° C | 41% | 1014.1 hPa | 0 mm | - | 0 W/m² | - |
| 1778052257 | 16.11° C | 41% | 1014 hPa | 0 mm | - | 0 W/m² | - |
| 1778051356 | 16.11° C | 42% | 1014 hPa | 0 mm | - | 0 W/m² | - |
| 1778051057 | 16.11° C | 41% | 1014 hPa | 0 mm | - | 0 W/m² | - |
| 1778050156 | 16.11° C | 41% | 1013.8 hPa | 0 mm | - | 0 W/m² | - |
* Rain latest hour (hover to see other rain measurements)
** Current wind speed in m/s (hover to see current wind gust speed)